createdAt,value
2019-04-07T00:00:24.930Z,8.52
2019-04-07T00:02:55.692Z,8.59
2019-04-07T00:05:26.586Z,8.47
2019-04-07T00:07:59.171Z,8.41
2019-04-07T00:10:29.612Z,8.45
2019-04-07T00:13:00.157Z,8.47
2019-04-07T00:15:30.538Z,8.50
2019-04-07T00:18:01.030Z,8.49
2019-04-07T00:20:32.097Z,8.45
2019-04-07T00:23:02.551Z,8.50
2019-04-07T00:25:32.855Z,8.46
2019-04-07T00:28:03.202Z,8.45
2019-04-07T00:30:33.508Z,8.45
2019-04-07T00:33:05.154Z,8.36
2019-04-07T00:35:35.595Z,8.28
2019-04-07T00:38:06.017Z,8.19
2019-04-07T00:40:37.190Z,8.12
2019-04-07T00:43:07.640Z,8.09
2019-04-07T00:45:38.035Z,8.10
2019-04-07T00:48:09.046Z,8.11
2019-04-07T00:50:39.643Z,8.12
2019-04-07T00:53:10.394Z,8.17
2019-04-07T00:55:41.750Z,8.13
2019-04-07T00:58:12.824Z,8.03
2019-04-07T01:00:43.698Z,7.97
2019-04-07T01:03:14.805Z,7.89
2019-04-07T01:05:45.809Z,7.81
2019-04-07T01:08:17.160Z,7.78
2019-04-07T01:10:48.061Z,7.81
2019-04-07T01:13:18.597Z,7.78
2019-04-07T01:15:49.392Z,7.77
2019-04-07T01:18:19.834Z,7.71
2019-04-07T01:20:50.258Z,7.71
2019-04-07T01:23:20.947Z,7.65
2019-04-07T01:25:52.214Z,7.59
2019-04-07T01:28:22.843Z,7.53
2019-04-07T01:30:53.388Z,7.52
2019-04-07T01:33:24.671Z,7.63
2019-04-07T01:35:55.183Z,7.62
2019-04-07T01:38:25.793Z,7.57
2019-04-07T01:41:12.977Z,7.54
2019-04-07T01:43:51.567Z,7.69
2019-04-07T01:46:37.998Z,7.70
2019-04-07T01:49:24.751Z,7.69
2019-04-07T01:52:14.239Z,7.64
2019-04-07T01:55:12.876Z,7.57
2019-04-07T01:58:14.221Z,7.50
2019-04-07T02:01:12.935Z,7.49
2019-04-07T02:04:02.747Z,7.54
2019-04-07T02:06:50.881Z,7.51
2019-04-07T02:09:32.470Z,7.41
2019-04-07T02:12:20.375Z,7.40
2019-04-07T02:15:10.535Z,7.36
2019-04-07T02:18:03.649Z,7.39
2019-04-07T02:21:05.411Z,7.31
2019-04-07T02:23:58.046Z,7.19
2019-04-07T02:26:47.386Z,7.22
2019-04-07T02:29:45.781Z,7.24
2019-04-07T02:32:35.660Z,7.27
2019-04-07T02:35:25.853Z,7.27
2019-04-07T02:38:17.076Z,7.19
2019-04-07T02:41:06.076Z,7.10
2019-04-07T02:44:13.929Z,7.09
2019-04-07T02:47:07.155Z,7.11
2019-04-07T02:49:56.426Z,7.11
2019-04-07T02:52:49.150Z,7.04
2019-04-07T02:55:31.979Z,7.01
2019-04-07T02:58:18.852Z,6.97
2019-04-07T03:01:01.922Z,6.94
2019-04-07T03:03:42.844Z,7.01
2019-04-07T03:06:34.640Z,7.03
2019-04-07T03:09:15.463Z,6.97
2019-04-07T03:11:58.217Z,6.95
2019-04-07T03:14:39.214Z,6.90
2019-04-07T03:17:41.603Z,6.85
2019-04-07T03:20:25.563Z,6.89
2019-04-07T03:23:07.412Z,6.99
2019-04-07T03:25:53.623Z,6.86
2019-04-07T03:28:42.262Z,6.89
2019-04-07T03:31:36.282Z,6.88
2019-04-07T03:34:14.744Z,6.88
2019-04-07T03:37:19.268Z,6.96
2019-04-07T03:39:49.598Z,6.93
2019-04-07T03:42:35.831Z,6.88
2019-04-07T03:45:18.724Z,6.84
2019-04-07T03:47:54.742Z,6.79
2019-04-07T03:50:56.855Z,6.74
2019-04-07T03:53:37.875Z,6.76
2019-04-07T03:56:26.226Z,6.74
2019-04-07T03:59:03.607Z,6.68
2019-04-07T04:01:59.137Z,6.75
2019-04-07T04:04:41.515Z,6.70
2019-04-07T04:07:47.239Z,6.70
2019-04-07T04:10:28.938Z,6.66
2019-04-07T04:13:21.809Z,6.58
2019-04-07T04:16:03.006Z,6.54
2019-04-07T04:18:33.579Z,6.54
2019-04-07T04:21:03.992Z,6.51
2019-04-07T04:23:34.465Z,6.52
2019-04-07T04:26:05.009Z,6.51
2019-04-07T04:28:35.350Z,6.47
2019-04-07T04:31:06.637Z,6.47
2019-04-07T04:33:37.907Z,6.48
2019-04-07T04:36:08.400Z,6.49
2019-04-07T04:38:38.836Z,6.47
2019-04-07T04:41:10.074Z,6.48
2019-04-07T04:43:40.695Z,6.44
2019-04-07T04:46:30.528Z,6.46
2019-04-07T04:49:01.042Z,6.44
2019-04-07T04:51:36.323Z,6.42
2019-04-07T04:54:03.933Z,6.32
2019-04-07T04:56:34.575Z,6.28
2019-04-07T04:59:04.979Z,6.32
2019-04-07T05:01:36.144Z,6.32
2019-04-07T05:04:07.482Z,6.47
2019-04-07T05:06:38.066Z,6.51
2019-04-07T05:09:09.536Z,6.51
2019-04-07T05:11:40.798Z,6.55
2019-04-07T05:14:11.442Z,6.57
2019-04-07T05:16:42.503Z,6.60
2019-04-07T05:19:13.069Z,6.68
2019-04-07T05:21:43.622Z,6.69
2019-04-07T05:24:14.743Z,6.74
2019-04-07T05:26:45.560Z,6.81
2019-04-07T05:29:15.931Z,6.90
2019-04-07T05:31:46.349Z,6.90
2019-04-07T05:34:20.534Z,7.01
2019-04-07T05:36:48.992Z,7.08
2019-04-07T05:39:19.477Z,7.17
2019-04-07T05:41:49.859Z,7.28
2019-04-07T05:44:20.228Z,7.40
2019-04-07T05:46:50.705Z,7.57
2019-04-07T05:49:22.571Z,7.61
2019-04-07T05:51:53.387Z,7.58
2019-04-07T05:54:24.067Z,7.74
2019-04-07T05:56:58.616Z,7.80
2019-04-07T05:59:26.631Z,7.88
2019-04-07T06:02:00.715Z,8.02
2019-04-07T06:04:29.204Z,8.08
2019-04-07T06:07:00.326Z,8.17
2019-04-07T06:09:33.673Z,8.29
2019-04-07T06:12:08.465Z,8.27
2019-04-07T06:14:35.370Z,8.28
2019-04-07T06:17:06.500Z,8.43
2019-04-07T06:19:39.527Z,8.64
2019-04-07T06:22:09.157Z,8.77
2019-04-07T06:24:39.512Z,8.83
2019-04-07T06:27:09.953Z,8.97
2019-04-07T06:29:40.354Z,8.97
2019-04-07T06:32:11.236Z,9.09
2019-04-07T06:34:43.653Z,9.19
2019-04-07T06:37:14.529Z,9.49
2019-04-07T06:39:47.017Z,9.44
2019-04-07T06:42:17.598Z,9.58
2019-04-07T06:44:50.066Z,9.45
2019-04-07T06:47:26.015Z,9.54
2019-04-07T06:50:45.509Z,9.55
2019-04-07T06:53:22.209Z,9.67
2019-04-07T06:56:11.593Z,9.87
2019-04-07T06:59:00.939Z,10.07
2019-04-07T07:01:49.329Z,10.16
2019-04-07T07:04:41.604Z,10.39
2019-04-07T07:07:30.547Z,10.69
2019-04-07T07:10:26.816Z,10.75
2019-04-07T07:13:25.835Z,10.50
2019-04-07T07:16:12.461Z,10.52
2019-04-07T07:19:10.658Z,10.57
2019-04-07T07:22:12.581Z,10.51
2019-04-07T07:24:39.244Z,10.49
2019-04-07T07:27:11.307Z,10.41
2019-04-07T07:29:45.405Z,10.41
2019-04-07T07:32:14.837Z,10.67
2019-04-07T07:34:45.396Z,11.09
2019-04-07T07:37:15.847Z,11.56
2019-04-07T07:39:47.097Z,12.24
2019-04-07T07:42:21.479Z,12.45
2019-04-07T07:44:50.351Z,12.21
2019-04-07T07:47:22.601Z,12.13
2019-04-07T07:49:53.680Z,11.95
2019-04-07T07:52:24.302Z,11.66
2019-04-07T07:54:55.209Z,11.70
2019-04-07T07:57:26.094Z,11.73
2019-04-07T07:59:57.359Z,12.16
2019-04-07T08:02:31.754Z,12.88
2019-04-07T08:05:03.191Z,13.03
2019-04-07T08:07:33.712Z,13.58
2019-04-07T08:10:04.877Z,13.69
2019-04-07T08:12:35.842Z,13.86
2019-04-07T08:15:08.086Z,13.65
2019-04-07T08:17:38.581Z,13.32
2019-04-07T08:20:11.361Z,13.35
2019-04-07T08:22:43.636Z,13.33
2019-04-07T08:25:14.238Z,13.35
2019-04-07T08:27:45.274Z,13.53
2019-04-07T08:30:17.326Z,13.80
2019-04-07T08:32:47.999Z,13.93
2019-04-07T08:35:18.675Z,13.59
2019-04-07T08:37:50.012Z,13.43
2019-04-07T08:40:20.965Z,13.46
2019-04-07T08:42:52.140Z,13.66
2019-04-07T08:45:23.110Z,13.84
2019-04-07T08:47:53.741Z,13.78
2019-04-07T08:50:27.712Z,13.95
2019-04-07T08:52:56.479Z,14.01
2019-04-07T08:55:28.231Z,13.79
2019-04-07T08:58:01.691Z,14.45
2019-04-07T09:00:31.629Z,15.45
2019-04-07T09:03:07.685Z,16.21
2019-04-07T09:05:34.427Z,16.14
2019-04-07T09:08:06.013Z,17.13
2019-04-07T09:10:43.013Z,17.71
2019-04-07T09:13:13.566Z,18.17
2019-04-07T09:15:56.754Z,18.69
2019-04-07T09:18:32.061Z,19.26
2019-04-07T09:21:22.499Z,19.18
2019-04-07T09:24:21.347Z,19.45
2019-04-07T09:27:17.161Z,19.47
2019-04-07T09:29:53.487Z,18.37
2019-04-07T09:32:52.378Z,19.39
2019-04-07T09:35:41.265Z,20.11
2019-04-07T09:38:36.645Z,20.68
2019-04-07T09:41:35.264Z,20.86
2019-04-07T09:44:21.935Z,21.03
2019-04-07T09:47:16.452Z,21.71
2019-04-07T09:50:04.855Z,21.19
2019-04-07T09:53:06.198Z,21.39
2019-04-07T09:55:59.198Z,21.83
2019-04-07T09:58:42.746Z,22.04
2019-04-07T10:01:44.655Z,22.45
2019-04-07T10:04:46.143Z,22.68
2019-04-07T10:07:47.890Z,23.74
2019-04-07T10:10:49.458Z,24.95
2019-04-07T10:13:57.720Z,25.00
2019-04-07T10:16:46.091Z,24.91
2019-04-07T10:19:26.916Z,24.70
2019-04-07T10:22:06.109Z,23.44
2019-04-07T10:24:50.237Z,22.35
2019-04-07T10:27:31.305Z,22.02
2019-04-07T10:30:33.148Z,21.86
2019-04-07T10:33:10.301Z,20.39
2019-04-07T10:35:58.526Z,19.63
2019-04-07T10:38:41.477Z,20.23
2019-04-07T10:41:38.268Z,19.91
2019-04-07T10:44:26.422Z,20.18
2019-04-07T10:47:19.444Z,18.99
2019-04-07T10:50:06.221Z,19.77
2019-04-07T10:53:10.344Z,20.63
2019-04-07T10:56:08.934Z,20.84
2019-04-07T10:58:58.338Z,20.70
2019-04-07T11:01:45.781Z,20.71
2019-04-07T11:04:38.769Z,20.34
2019-04-07T11:07:25.894Z,20.15
2019-04-07T11:10:32.571Z,20.22
2019-04-07T11:13:13.676Z,20.14
2019-04-07T11:16:06.216Z,20.05
2019-04-07T11:19:07.877Z,18.63
2019-04-07T11:21:44.850Z,18.70
2019-04-07T11:24:35.106Z,18.90
2019-04-07T11:27:15.543Z,19.12
2019-04-07T11:29:58.444Z,19.37
2019-04-07T11:32:47.974Z,19.71
2019-04-07T11:35:31.081Z,20.09
2019-04-07T11:38:24.097Z,20.19
2019-04-07T11:41:28.862Z,20.36
2019-04-07T11:44:14.997Z,20.76
2019-04-07T11:46:59.455Z,20.87
2019-04-07T11:49:55.190Z,21.18
2019-04-07T11:52:34.030Z,21.37
2019-04-07T11:55:18.428Z,21.73
2019-04-07T11:58:09.751Z,21.95
2019-04-07T12:00:43.715Z,22.32
2019-04-07T12:03:35.912Z,23.43
2019-04-07T12:06:25.487Z,22.62
2019-04-07T12:09:08.510Z,22.36
2019-04-07T12:11:57.238Z,21.80
2019-04-07T12:14:55.578Z,20.94
2019-04-07T12:17:44.901Z,20.24
2019-04-07T12:20:22.726Z,19.59
2019-04-07T12:23:03.590Z,19.36
2019-04-07T12:26:11.330Z,19.23
2019-04-07T12:29:01.325Z,19.15
2019-04-07T12:31:48.752Z,18.77
2019-04-07T12:34:29.695Z,18.73
2019-04-07T12:37:17.488Z,19.43
2019-04-07T12:40:04.334Z,19.81
2019-04-07T12:42:45.486Z,19.42
2019-04-07T12:45:28.522Z,19.93
2019-04-07T12:48:11.652Z,20.88
2019-04-07T12:51:04.036Z,19.77
2019-04-07T12:54:07.479Z,19.59
2019-04-07T12:56:48.924Z,20.44
2019-04-07T12:59:34.695Z,22.97
2019-04-07T13:02:22.940Z,25.02
2019-04-07T13:05:18.609Z,24.91
2019-04-07T13:08:11.184Z,25.44
2019-04-07T13:10:48.011Z,26.15
2019-04-07T13:13:47.046Z,27.12
2019-04-07T13:16:35.901Z,26.58
2019-04-07T13:19:25.351Z,26.51
2019-04-07T13:22:17.123Z,25.98
2019-04-07T13:25:22.646Z,25.13
2019-04-07T13:28:08.295Z,24.86
2019-04-07T13:30:54.710Z,23.56
2019-04-07T13:33:37.199Z,23.31
2019-04-07T13:36:28.440Z,23.04
2019-04-07T13:39:27.002Z,22.98
2019-04-07T13:42:08.844Z,22.12
2019-04-07T13:45:04.509Z,21.43
2019-04-07T13:48:05.534Z,20.81
2019-04-07T13:50:53.003Z,20.44
2019-04-07T13:53:32.867Z,19.85
2019-04-07T13:56:15.718Z,19.34
2019-04-07T13:58:56.617Z,19.35
2019-04-07T14:01:52.424Z,19.05
2019-04-07T14:04:40.608Z,19.18
2019-04-07T14:07:35.394Z,19.13
2019-04-07T14:10:25.975Z,19.45
2019-04-07T14:13:21.030Z,19.89
2019-04-07T14:16:08.381Z,19.76
2019-04-07T14:19:03.997Z,20.01
2019-04-07T14:21:39.755Z,20.03
2019-04-07T14:24:35.152Z,19.76
2019-04-07T14:27:30.975Z,19.90
2019-04-07T14:30:24.301Z,20.24
2019-04-07T14:33:13.720Z,20.38
2019-04-07T14:35:49.900Z,20.65
2019-04-07T14:38:40.201Z,20.96
2019-04-07T14:41:43.423Z,21.13
2019-04-07T14:44:33.497Z,21.49
2019-04-07T14:47:09.694Z,21.18
2019-04-07T14:50:04.983Z,20.95
2019-04-07T14:52:42.652Z,20.54
2019-04-07T14:55:20.713Z,20.09
2019-04-07T14:57:57.784Z,19.89
2019-04-07T15:00:49.108Z,19.34
2019-04-07T15:03:20.254Z,18.96
2019-04-07T15:05:55.269Z,18.49
2019-04-07T15:08:32.522Z,18.38
2019-04-07T15:11:08.931Z,17.85
2019-04-07T15:13:40.461Z,17.74
2019-04-07T15:16:11.204Z,17.70
2019-04-07T15:18:42.170Z,17.80
2019-04-07T15:21:13.423Z,17.88
2019-04-07T15:23:46.822Z,17.82
2019-04-07T15:26:16.950Z,17.77
2019-04-07T15:28:49.233Z,17.95
2019-04-07T15:31:20.763Z,17.99
2019-04-07T15:33:52.198Z,18.20
2019-04-07T15:36:23.222Z,18.21
2019-04-07T15:38:55.920Z,18.07
2019-04-07T15:41:26.048Z,17.93
2019-04-07T15:43:57.339Z,17.81
2019-04-07T15:46:28.801Z,17.72
2019-04-07T15:49:00.305Z,17.39
2019-04-07T15:51:34.122Z,17.40
2019-04-07T15:54:02.826Z,17.48
2019-04-07T15:56:33.654Z,17.48
2019-04-07T15:59:04.166Z,17.51
2019-04-07T16:01:38.004Z,17.54
2019-04-07T16:04:07.030Z,17.37
2019-04-07T16:06:37.386Z,17.28
2019-04-07T16:09:16.731Z,17.07
2019-04-07T16:11:41.376Z,17.08
2019-04-07T16:14:13.637Z,17.13
2019-04-07T16:16:43.939Z,16.94
2019-04-07T16:19:19.782Z,17.00
2019-04-07T16:21:46.603Z,17.15
2019-04-07T16:24:17.836Z,17.04
2019-04-07T16:26:48.354Z,17.07
2019-04-07T16:29:20.073Z,16.82
2019-04-07T16:31:51.749Z,16.74
2019-04-07T16:34:22.825Z,16.86
2019-04-07T16:36:57.328Z,16.89
2019-04-07T16:39:26.603Z,16.92
2019-04-07T16:41:57.891Z,16.97
2019-04-07T16:44:28.650Z,16.83
2019-04-07T16:47:02.892Z,16.72
2019-04-07T16:49:31.570Z,16.71
2019-04-07T16:52:03.258Z,16.74
2019-04-07T16:54:34.087Z,16.56
2019-04-07T16:57:05.197Z,16.49
2019-04-07T16:59:36.613Z,16.55
2019-04-07T17:02:09.110Z,16.47
2019-04-07T17:04:39.586Z,16.33
2019-04-07T17:07:14.316Z,16.09
2019-04-07T17:09:42.617Z,15.98
2019-04-07T17:12:13.778Z,15.93
2019-04-07T17:14:44.814Z,15.93
2019-04-07T17:17:18.253Z,15.88
2019-04-07T17:19:47.794Z,15.70
2019-04-07T17:22:18.357Z,15.64
2019-04-07T17:24:48.799Z,15.55
2019-04-07T17:27:19.424Z,15.43
2019-04-07T17:29:53.542Z,15.23
2019-04-07T17:32:22.094Z,15.05
2019-04-07T17:34:53.028Z,15.06
2019-04-07T17:37:25.915Z,14.94
2019-04-07T17:40:01.512Z,14.92
2019-04-07T17:42:32.354Z,14.90
2019-04-07T17:45:22.511Z,14.86
2019-04-07T17:48:19.112Z,14.82
2019-04-07T17:51:17.891Z,14.72
2019-04-07T17:53:56.077Z,14.55
2019-04-07T17:56:38.169Z,14.41
2019-04-07T17:59:35.650Z,14.28
2019-04-07T18:02:22.872Z,14.19
2019-04-07T18:05:10.689Z,14.07
2019-04-07T18:08:14.296Z,14.04
2019-04-07T18:11:02.347Z,14.00
2019-04-07T18:14:02.041Z,13.99
2019-04-07T18:17:04.480Z,14.01
2019-04-07T18:20:08.599Z,13.99
2019-04-07T18:22:56.913Z,13.97
2019-04-07T18:25:37.921Z,13.99
2019-04-07T18:28:21.529Z,13.98
2019-04-07T18:31:08.045Z,14.00
2019-04-07T18:33:57.753Z,14.06
2019-04-07T18:36:50.417Z,13.99
2019-04-07T18:39:43.069Z,13.91
2019-04-07T18:42:24.208Z,13.83
2019-04-07T18:45:16.530Z,13.81
2019-04-07T18:48:01.116Z,13.78
2019-04-07T18:50:40.076Z,13.68
2019-04-07T18:53:38.497Z,13.62
2019-04-07T18:56:38.626Z,13.57
2019-04-07T18:59:20.247Z,13.43
2019-04-07T19:02:19.308Z,13.31
2019-04-07T19:05:13.197Z,13.22
2019-04-07T19:08:02.639Z,13.17
2019-04-07T19:11:12.308Z,13.11
2019-04-07T19:14:21.843Z,13.09
2019-04-07T19:16:49.246Z,13.02
2019-04-07T19:19:29.777Z,12.94
2019-04-07T19:22:28.643Z,12.87
2019-04-07T19:25:11.767Z,12.82
2019-04-07T19:28:00.030Z,12.81
2019-04-07T19:30:43.687Z,12.72
2019-04-07T19:33:32.368Z,12.60
2019-04-07T19:36:21.328Z,12.58
2019-04-07T19:39:09.349Z,12.49
2019-04-07T19:42:14.462Z,12.29
2019-04-07T19:45:04.348Z,12.28
2019-04-07T19:48:06.442Z,12.25
2019-04-07T19:51:03.245Z,12.13
2019-04-07T19:53:53.547Z,12.13
2019-04-07T19:56:35.741Z,12.14
2019-04-07T19:59:28.139Z,12.05
2019-04-07T20:02:17.587Z,12.00
2019-04-07T20:04:57.803Z,11.93
2019-04-07T20:07:46.265Z,11.81
2019-04-07T20:10:24.496Z,11.79
2019-04-07T20:13:22.079Z,11.75
2019-04-07T20:16:13.683Z,11.72
2019-04-07T20:19:06.538Z,11.68
2019-04-07T20:21:53.325Z,11.61
2019-04-07T20:24:40.984Z,11.57
2019-04-07T20:27:29.762Z,11.51
2019-04-07T20:30:21.581Z,11.50
2019-04-07T20:33:31.407Z,11.50
2019-04-07T20:36:23.502Z,11.46
2019-04-07T20:39:03.987Z,11.45
2019-04-07T20:41:52.521Z,11.47
2019-04-07T20:44:36.505Z,11.45
2019-04-07T20:47:32.209Z,11.33
2019-04-07T20:50:21.717Z,11.26
2019-04-07T20:53:26.397Z,11.22
2019-04-07T20:56:18.664Z,11.18
2019-04-07T20:59:18.286Z,11.10
2019-04-07T21:02:12.519Z,11.14
2019-04-07T21:05:04.711Z,11.17
2019-04-07T21:07:57.756Z,11.18
2019-04-07T21:10:51.850Z,11.09
2019-04-07T21:13:54.558Z,10.99
2019-04-07T21:16:43.254Z,10.73
2019-04-07T21:19:35.485Z,10.59
2019-04-07T21:22:19.946Z,10.35
2019-04-07T21:25:03.888Z,10.24
2019-04-07T21:27:53.344Z,10.16
2019-04-07T21:30:34.030Z,10.09
2019-04-07T21:33:25.594Z,10.03
2019-04-07T21:36:14.233Z,9.98
2019-04-07T21:39:04.577Z,9.91
2019-04-07T21:42:10.362Z,9.90
2019-04-07T21:45:07.206Z,9.98
2019-04-07T21:47:57.278Z,9.89
2019-04-07T21:50:48.148Z,9.79
2019-04-07T21:53:38.192Z,9.63
2019-04-07T21:56:26.444Z,9.60
2019-04-07T21:59:15.207Z,9.51
2019-04-07T22:02:03.547Z,9.37
2019-04-07T22:04:59.041Z,9.27
2019-04-07T22:07:48.014Z,9.19
2019-04-07T22:10:20.766Z,9.07
2019-04-07T22:12:51.931Z,8.96
2019-04-07T22:15:22.630Z,8.89
2019-04-07T22:17:54.158Z,8.80
2019-04-07T22:20:25.085Z,8.78
2019-04-07T22:22:59.175Z,8.79
2019-04-07T22:25:36.181Z,8.83
2019-04-07T22:28:05.611Z,8.69
2019-04-07T22:30:39.208Z,8.67
2019-04-07T22:33:09.198Z,8.62
2019-04-07T22:35:42.695Z,8.57
2019-04-07T22:38:12.390Z,8.58
2019-04-07T22:40:43.643Z,8.53
2019-04-07T22:43:19.877Z,8.53
2019-04-07T22:45:59.131Z,8.42
2019-04-07T22:48:26.536Z,8.43
2019-04-07T22:50:57.283Z,8.50
2019-04-07T22:53:30.122Z,8.51
2019-04-07T22:55:59.342Z,8.55
2019-04-07T22:58:29.908Z,8.59
2019-04-07T23:01:00.686Z,8.48
2019-04-07T23:03:31.385Z,8.49
2019-04-07T23:09:43.520Z,8.59
2019-04-07T23:12:14.754Z,8.27
2019-04-07T23:14:45.191Z,8.32
2019-04-07T23:17:15.565Z,8.21
2019-04-07T23:19:46.266Z,8.18
2019-04-07T23:22:17.944Z,8.13
2019-04-07T23:24:48.582Z,7.97
2019-04-07T23:27:20.004Z,7.97
2019-04-07T23:29:50.788Z,7.73
2019-04-07T23:32:21.340Z,7.83
2019-04-07T23:34:52.048Z,7.86
2019-04-07T23:37:22.606Z,7.91
2019-04-07T23:39:53.751Z,7.93
2019-04-07T23:42:24.311Z,7.90
2019-04-07T23:44:55.180Z,7.92
2019-04-07T23:47:25.676Z,7.86
2019-04-07T23:49:56.049Z,7.85
2019-04-07T23:52:27.190Z,7.89
2019-04-07T23:54:57.536Z,7.87
2019-04-07T23:57:27.949Z,7.81
2019-04-07T23:59:58.391Z,7.77
